Terminal Aerodrome Forecast
Issued by NWS

Home | Current Version | Previous Version | Text Only | Print | Product List | Glossary On
Versions: 1 2 3 4 5 6 7 8 9 10 11 12 13 14 15 16 17 18
000
FTUS42 KILM 252300
TAFCRE
TAF
KCRE 252320Z 2600/2624 22002KT P6SM SCT015 BKN040
     FM260800 25001KT 4SM BR FEW020 SCT060
     FM261400 22005KT P6SM SCT025
     FM261900 20012KT P6SM VCSH SCT035 BKN250=

USA.gov is the U.S. government's official web portal to all federal, state and local government web resources and services.